Terminal Aerodrome Forecast
Issued by NWS Wichita, KS

Home | Current Version | Previous Version | Graphics & Text | Print | Product List | Glossary On
Versions: 1 2 3 4 5 6 7 8 9 10 11 12 13 14 15 16 17 18 19 20 21 22 23 24 25 26 27
672
FTUS43 KICT 251536 AAC
TAFICT
TAF AMD
KICT 251536Z 2516/2612 17018G25KT P6SM BKN015 OVC025
      TEMPO 2517/2518 BKN025
     FM251800 19015G23KT P6SM SCT035
     FM260200 17011KT P6SM SCT250
     FM260600 17012KT P6SM SCT040
     FM260800 17011KT P6SM BKN008=

USA.gov is the U.S. government's official web portal to all federal, state and local government web resources and services.